sensor_id;sensor_type;location;lat;lon;timestamp;P1;durP1;ratioP1;P2;durP2;ratioP2
78004;SDS011;67209;51.698;-0.292;2023-07-24T00:02:06;8.20;;;2.03;;
78004;SDS011;67209;51.698;-0.292;2023-07-24T00:04:32;7.57;;;1.90;;
78004;SDS011;67209;51.698;-0.292;2023-07-24T00:07:01;4.32;;;1.65;;
78004;SDS011;67209;51.698;-0.292;2023-07-24T00:09:28;3.20;;;1.30;;
78004;SDS011;67209;51.698;-0.292;2023-07-24T00:11:54;4.80;;;1.70;;
78004;SDS011;67209;51.698;-0.292;2023-07-24T00:14:20;5.95;;;2.00;;
78004;SDS011;67209;51.698;-0.292;2023-07-24T00:16:46;5.78;;;2.00;;
78004;SDS011;67209;51.698;-0.292;2023-07-24T00:19:12;4.50;;;1.67;;
78004;SDS011;67209;51.698;-0.292;2023-07-24T00:21:38;6.10;;;1.65;;
78004;SDS011;67209;51.698;-0.292;2023-07-24T00:24:04;6.07;;;1.65;;
78004;SDS011;67209;51.698;-0.292;2023-07-24T00:26:30;5.55;;;2.03;;
78004;SDS011;67209;51.698;-0.292;2023-07-24T00:28:57;3.65;;;1.60;;
78004;SDS011;67209;51.698;-0.292;2023-07-24T00:31:22;5.55;;;1.95;;
78004;SDS011;67209;51.698;-0.292;2023-07-24T00:33:48;6.40;;;2.05;;
78004;SDS011;67209;51.698;-0.292;2023-07-24T00:36:14;6.68;;;2.10;;
78004;SDS011;67209;51.698;-0.292;2023-07-24T00:38:40;3.83;;;2.10;;
78004;SDS011;67209;51.698;-0.292;2023-07-24T00:41:06;5.07;;;1.73;;
78004;SDS011;67209;51.698;-0.292;2023-07-24T00:43:32;4.68;;;2.05;;
78004;SDS011;67209;51.698;-0.292;2023-07-24T00:45:59;4.57;;;1.70;;
78004;SDS011;67209;51.698;-0.292;2023-07-24T00:48:25;5.65;;;1.70;;
78004;SDS011;67209;51.698;-0.292;2023-07-24T00:50:52;7.00;;;2.17;;
78004;SDS011;67209;51.698;-0.292;2023-07-24T00:53:19;5.95;;;2.28;;
78004;SDS011;67209;51.698;-0.292;2023-07-24T00:55:45;5.50;;;1.85;;
78004;SDS011;67209;51.698;-0.292;2023-07-24T00:58:11;4.28;;;1.45;;
78004;SDS011;67209;51.698;-0.292;2023-07-24T01:00:40;4.05;;;1.40;;
78004;SDS011;67209;51.698;-0.292;2023-07-24T01:03:07;3.85;;;1.90;;
78004;SDS011;67209;51.698;-0.292;2023-07-24T01:05:33;7.63;;;2.08;;
78004;SDS011;67209;51.698;-0.292;2023-07-24T01:07:59;5.45;;;2.10;;
78004;SDS011;67209;51.698;-0.292;2023-07-24T01:10:25;5.13;;;1.98;;
78004;SDS011;67209;51.698;-0.292;2023-07-24T01:12:54;4.55;;;1.70;;
78004;SDS011;67209;51.698;-0.292;2023-07-24T01:17:55;2.85;;;1.50;;
78004;SDS011;67209;51.698;-0.292;2023-07-24T01:20:22;4.43;;;1.63;;
78004;SDS011;67209;51.698;-0.292;2023-07-24T01:25:36;4.25;;;1.67;;
78004;SDS011;67209;51.698;-0.292;2023-07-24T01:28:07;6.35;;;2.30;;
78004;SDS011;67209;51.698;-0.292;2023-07-24T01:30:33;7.38;;;1.90;;
78004;SDS011;67209;51.698;-0.292;2023-07-24T01:32:59;4.60;;;2.10;;
78004;SDS011;67209;51.698;-0.292;2023-07-24T01:35:25;4.55;;;1.67;;
78004;SDS011;67209;51.698;-0.292;2023-07-24T01:37:52;7.32;;;1.80;;
78004;SDS011;67209;51.698;-0.292;2023-07-24T01:40:19;3.38;;;1.60;;
78004;SDS011;67209;51.698;-0.292;2023-07-24T01:42:47;5.47;;;1.90;;
78004;SDS011;67209;51.698;-0.292;2023-07-24T01:45:14;5.07;;;2.03;;
78004;SDS011;67209;51.698;-0.292;2023-07-24T01:47:40;5.25;;;2.03;;
78004;SDS011;67209;51.698;-0.292;2023-07-24T01:50:07;4.10;;;1.50;;
78004;SDS011;67209;51.698;-0.292;2023-07-24T01:52:33;5.78;;;1.65;;
78004;SDS011;67209;51.698;-0.292;2023-07-24T01:54:59;4.18;;;1.83;;
78004;SDS011;67209;51.698;-0.292;2023-07-24T01:57:25;5.97;;;1.95;;
78004;SDS011;67209;51.698;-0.292;2023-07-24T01:59:51;5.72;;;1.92;;
78004;SDS011;67209;51.698;-0.292;2023-07-24T02:02:17;4.00;;;1.73;;
78004;SDS011;67209;51.698;-0.292;2023-07-24T02:04:43;7.57;;;1.85;;
78004;SDS011;67209;51.698;-0.292;2023-07-24T02:07:09;5.45;;;1.67;;
78004;SDS011;67209;51.698;-0.292;2023-07-24T02:09:35;5.40;;;1.58;;
78004;SDS011;67209;51.698;-0.292;2023-07-24T02:12:01;2.80;;;1.50;;
78004;SDS011;67209;51.698;-0.292;2023-07-24T02:14:27;6.95;;;1.90;;
78004;SDS011;67209;51.698;-0.292;2023-07-24T02:16:53;5.20;;;2.20;;
78004;SDS011;67209;51.698;-0.292;2023-07-24T02:19:19;6.07;;;1.60;;
78004;SDS011;67209;51.698;-0.292;2023-07-24T02:21:45;2.85;;;1.42;;
78004;SDS011;67209;51.698;-0.292;2023-07-24T02:24:11;3.92;;;1.40;;
78004;SDS011;67209;51.698;-0.292;2023-07-24T02:26:37;4.07;;;1.77;;
78004;SDS011;67209;51.698;-0.292;2023-07-24T02:29:03;5.03;;;1.70;;
78004;SDS011;67209;51.698;-0.292;2023-07-24T02:31:29;5.35;;;1.70;;
78004;SDS011;67209;51.698;-0.292;2023-07-24T02:33:55;6.05;;;2.30;;
78004;SDS011;67209;51.698;-0.292;2023-07-24T02:36:22;4.50;;;2.10;;
78004;SDS011;67209;51.698;-0.292;2023-07-24T02:38:48;3.58;;;1.58;;
78004;SDS011;67209;51.698;-0.292;2023-07-24T02:41:14;3.65;;;1.83;;
78004;SDS011;67209;51.698;-0.292;2023-07-24T02:43:40;5.53;;;1.58;;
78004;SDS011;67209;51.698;-0.292;2023-07-24T02:46:06;4.28;;;1.58;;
78004;SDS011;67209;51.698;-0.292;2023-07-24T02:48:32;6.25;;;1.70;;
78004;SDS011;67209;51.698;-0.292;2023-07-24T02:50:58;3.15;;;1.90;;
78004;SDS011;67209;51.698;-0.292;2023-07-24T02:53:24;4.60;;;1.77;;
78004;SDS011;67209;51.698;-0.292;2023-07-24T02:55:50;4.97;;;1.70;;
78004;SDS011;67209;51.698;-0.292;2023-07-24T02:58:16;3.30;;;1.55;;
78004;SDS011;67209;51.698;-0.292;2023-07-24T03:00:42;3.20;;;2.00;;
78004;SDS011;67209;51.698;-0.292;2023-07-24T03:03:08;4.03;;;1.80;;
78004;SDS011;67209;51.698;-0.292;2023-07-24T03:05:34;4.03;;;1.63;;
78004;SDS011;67209;51.698;-0.292;2023-07-24T03:08:00;5.07;;;1.70;;
78004;SDS011;67209;51.698;-0.292;2023-07-24T03:10:26;4.65;;;1.60;;
78004;SDS011;67209;51.698;-0.292;2023-07-24T03:12:52;4.72;;;1.67;;
78004;SDS011;67209;51.698;-0.292;2023-07-24T03:15:18;5.20;;;1.75;;
78004;SDS011;67209;51.698;-0.292;2023-07-24T03:17:44;6.75;;;1.98;;
78004;SDS011;67209;51.698;-0.292;2023-07-24T03:20:13;5.55;;;1.70;;
78004;SDS011;67209;51.698;-0.292;2023-07-24T03:22:40;3.78;;;1.75;;
78004;SDS011;67209;51.698;-0.292;2023-07-24T03:25:06;5.70;;;1.85;;
78004;SDS011;67209;51.698;-0.292;2023-07-24T03:27:32;5.78;;;1.73;;
78004;SDS011;67209;51.698;-0.292;2023-07-24T03:29:58;6.25;;;1.98;;
78004;SDS011;67209;51.698;-0.292;2023-07-24T03:32:24;3.33;;;1.45;;
78004;SDS011;67209;51.698;-0.292;2023-07-24T03:34:50;5.07;;;1.50;;
78004;SDS011;67209;51.698;-0.292;2023-07-24T03:37:16;6.15;;;1.90;;
78004;SDS011;67209;51.698;-0.292;2023-07-24T03:39:42;3.58;;;2.05;;
78004;SDS011;67209;51.698;-0.292;2023-07-24T03:42:11;6.18;;;1.85;;
78004;SDS011;67209;51.698;-0.292;2023-07-24T03:44:40;4.40;;;2.05;;
78004;SDS011;67209;51.698;-0.292;2023-07-24T03:47:07;8.98;;;2.30;;
78004;SDS011;67209;51.698;-0.292;2023-07-24T03:49:33;4.05;;;1.83;;
78004;SDS011;67209;51.698;-0.292;2023-07-24T03:51:59;3.72;;;1.80;;
78004;SDS011;67209;51.698;-0.292;2023-07-24T03:54:25;2.75;;;1.42;;
78004;SDS011;67209;51.698;-0.292;2023-07-24T03:56:51;5.60;;;1.92;;
78004;SDS011;67209;51.698;-0.292;2023-07-24T03:59:17;3.40;;;1.67;;
78004;SDS011;67209;51.698;-0.292;2023-07-24T04:01:43;3.88;;;1.67;;
78004;SDS011;67209;51.698;-0.292;2023-07-24T04:04:09;8.30;;;2.50;;
78004;SDS011;67209;51.698;-0.292;2023-07-24T04:06:35;3.53;;;1.60;;
78004;SDS011;67209;51.698;-0.292;2023-07-24T04:09:01;6.63;;;1.95;;
78004;SDS011;67209;51.698;-0.292;2023-07-24T04:11:27;5.65;;;1.77;;
78004;SDS011;67209;51.698;-0.292;2023-07-24T04:13:53;5.55;;;2.63;;
78004;SDS011;67209;51.698;-0.292;2023-07-24T04:16:19;4.07;;;1.63;;
78004;SDS011;67209;51.698;-0.292;2023-07-24T04:18:45;6.35;;;1.73;;
78004;SDS011;67209;51.698;-0.292;2023-07-24T04:21:11;5.72;;;1.63;;
78004;SDS011;67209;51.698;-0.292;2023-07-24T04:23:37;5.75;;;1.40;;
78004;SDS011;67209;51.698;-0.292;2023-07-24T04:26:03;4.00;;;2.15;;
78004;SDS011;67209;51.698;-0.292;2023-07-24T04:28:29;3.63;;;1.77;;
78004;SDS011;67209;51.698;-0.292;2023-07-24T04:30:59;4.15;;;1.80;;
78004;SDS011;67209;51.698;-0.292;2023-07-24T04:33:25;5.53;;;1.60;;
78004;SDS011;67209;51.698;-0.292;2023-07-24T04:35:52;5.32;;;1.83;;
78004;SDS011;67209;51.698;-0.292;2023-07-24T04:38:18;4.88;;;1.50;;
78004;SDS011;67209;51.698;-0.292;2023-07-24T04:40:44;3.70;;;1.77;;
78004;SDS011;67209;51.698;-0.292;2023-07-24T04:43:10;3.97;;;1.73;;
78004;SDS011;67209;51.698;-0.292;2023-07-24T04:45:36;5.10;;;1.80;;
78004;SDS011;67209;51.698;-0.292;2023-07-24T04:48:02;4.53;;;1.88;;
78004;SDS011;67209;51.698;-0.292;2023-07-24T04:50:28;4.63;;;1.80;;
78004;SDS011;67209;51.698;-0.292;2023-07-24T04:52:54;4.05;;;1.50;;
78004;SDS011;67209;51.698;-0.292;2023-07-24T04:55:21;6.13;;;1.95;;
78004;SDS011;67209;51.698;-0.292;2023-07-24T04:57:47;7.03;;;2.08;;
78004;SDS011;67209;51.698;-0.292;2023-07-24T05:00:13;4.18;;;2.20;;
78004;SDS011;67209;51.698;-0.292;2023-07-24T05:02:39;3.75;;;1.80;;
78004;SDS011;67209;51.698;-0.292;2023-07-24T05:05:05;5.18;;;1.85;;
78004;SDS011;67209;51.698;-0.292;2023-07-24T05:07:32;6.60;;;2.17;;
78004;SDS011;67209;51.698;-0.292;2023-07-24T05:09:58;5.53;;;1.70;;
78004;SDS011;67209;51.698;-0.292;2023-07-24T05:12:24;3.92;;;1.70;;
78004;SDS011;67209;51.698;-0.292;2023-07-24T05:14:50;3.53;;;1.50;;
78004;SDS011;67209;51.698;-0.292;2023-07-24T05:17:16;3.50;;;1.73;;
78004;SDS011;67209;51.698;-0.292;2023-07-24T05:19:42;5.13;;;1.73;;
78004;SDS011;67209;51.698;-0.292;2023-07-24T05:22:08;3.95;;;2.00;;
78004;SDS011;67209;51.698;-0.292;2023-07-24T05:24:35;5.25;;;1.88;;
78004;SDS011;67209;51.698;-0.292;2023-07-24T05:27:02;2.65;;;1.65;;
78004;SDS011;67209;51.698;-0.292;2023-07-24T05:29:28;5.07;;;2.20;;
78004;SDS011;67209;51.698;-0.292;2023-07-24T05:31:54;3.97;;;1.83;;
78004;SDS011;67209;51.698;-0.292;2023-07-24T05:34:20;3.33;;;1.73;;
78004;SDS011;67209;51.698;-0.292;2023-07-24T05:36:46;3.30;;;1.42;;
78004;SDS011;67209;51.698;-0.292;2023-07-24T05:39:12;33.95;;;5.28;;
78004;SDS011;67209;51.698;-0.292;2023-07-24T05:41:38;3.75;;;2.00;;
78004;SDS011;67209;51.698;-0.292;2023-07-24T05:44:04;4.45;;;1.92;;
78004;SDS011;67209;51.698;-0.292;2023-07-24T05:46:30;4.03;;;1.90;;
78004;SDS011;67209;51.698;-0.292;2023-07-24T05:48:56;7.05;;;1.92;;
78004;SDS011;67209;51.698;-0.292;2023-07-24T05:51:22;3.17;;;1.67;;
78004;SDS011;67209;51.698;-0.292;2023-07-24T05:53:48;3.85;;;1.40;;
78004;SDS011;67209;51.698;-0.292;2023-07-24T05:56:15;4.78;;;1.80;;
78004;SDS011;67209;51.698;-0.292;2023-07-24T05:58:41;4.70;;;2.10;;
78004;SDS011;67209;51.698;-0.292;2023-07-24T06:01:07;3.60;;;1.90;;
78004;SDS011;67209;51.698;-0.292;2023-07-24T06:03:35;5.72;;;1.83;;
78004;SDS011;67209;51.698;-0.292;2023-07-24T06:06:01;5.18;;;1.88;;
78004;SDS011;67209;51.698;-0.292;2023-07-24T06:08:27;4.63;;;2.03;;
78004;SDS011;67209;51.698;-0.292;2023-07-24T06:10:53;4.25;;;2.10;;
78004;SDS011;67209;51.698;-0.292;2023-07-24T06:13:19;4.78;;;2.22;;
78004;SDS011;67209;51.698;-0.292;2023-07-24T06:15:48;3.60;;;2.22;;
78004;SDS011;67209;51.698;-0.292;2023-07-24T06:18:14;2.78;;;1.30;;
78004;SDS011;67209;51.698;-0.292;2023-07-24T06:20:40;1.52;;;0.70;;
78004;SDS011;67209;51.698;-0.292;2023-07-24T06:23:06;2.70;;;0.40;;
78004;SDS011;67209;51.698;-0.292;2023-07-24T06:25:33;0.98;;;0.60;;
78004;SDS011;67209;51.698;-0.292;2023-07-24T06:27:59;34.97;;;2.83;;
78004;SDS011;67209;51.698;-0.292;2023-07-24T06:30:25;1.35;;;0.32;;
78004;SDS011;67209;51.698;-0.292;2023-07-24T06:32:51;3.33;;;0.45;;
78004;SDS011;67209;51.698;-0.292;2023-07-24T06:35:17;2.03;;;0.35;;
78004;SDS011;67209;51.698;-0.292;2023-07-24T06:37:43;0.60;;;0.30;;
78004;SDS011;67209;51.698;-0.292;2023-07-24T06:40:10;0.80;;;0.20;;
78004;SDS011;67209;51.698;-0.292;2023-07-24T06:42:36;0.82;;;0.20;;
78004;SDS011;67209;51.698;-0.292;2023-07-24T06:45:02;1.90;;;0.50;;
78004;SDS011;67209;51.698;-0.292;2023-07-24T06:47:28;1.67;;;0.20;;
78004;SDS011;67209;51.698;-0.292;2023-07-24T06:49:54;1.65;;;0.43;;
78004;SDS011;67209;51.698;-0.292;2023-07-24T06:52:20;2.15;;;0.57;;
78004;SDS011;67209;51.698;-0.292;2023-07-24T06:54:46;2.53;;;0.65;;
78004;SDS011;67209;51.698;-0.292;2023-07-24T06:57:12;2.70;;;0.55;;
78004;SDS011;67209;51.698;-0.292;2023-07-24T06:59:38;1.90;;;0.52;;
78004;SDS011;67209;51.698;-0.292;2023-07-24T07:02:05;1.30;;;0.45;;
78004;SDS011;67209;51.698;-0.292;2023-07-24T07:04:31;0.70;;;0.30;;
78004;SDS011;67209;51.698;-0.292;2023-07-24T07:06:57;0.90;;;0.50;;
78004;SDS011;67209;51.698;-0.292;2023-07-24T07:09:23;1.73;;;0.40;;
78004;SDS011;67209;51.698;-0.292;2023-07-24T07:11:49;1.08;;;0.38;;
78004;SDS011;67209;51.698;-0.292;2023-07-24T07:14:15;0.90;;;0.40;;
78004;SDS011;67209;51.698;-0.292;2023-07-24T07:16:41;1.13;;;0.30;;
78004;SDS011;67209;51.698;-0.292;2023-07-24T07:19:06;1.60;;;0.47;;
78004;SDS011;67209;51.698;-0.292;2023-07-24T07:21:34;1.25;;;0.30;;
78004;SDS011;67209;51.698;-0.292;2023-07-24T07:24:00;2.60;;;0.40;;
78004;SDS011;67209;51.698;-0.292;2023-07-24T07:26:26;0.50;;;0.20;;
78004;SDS011;67209;51.698;-0.292;2023-07-24T07:28:54;1.35;;;0.20;;
78004;SDS011;67209;51.698;-0.292;2023-07-24T07:31:20;1.05;;;0.35;;
78004;SDS011;67209;51.698;-0.292;2023-07-24T07:33:46;23.00;;;1.48;;
78004;SDS011;67209;51.698;-0.292;2023-07-24T07:36:13;1.48;;;0.40;;
78004;SDS011;67209;51.698;-0.292;2023-07-24T07:38:39;0.85;;;0.30;;
78004;SDS011;67209;51.698;-0.292;2023-07-24T07:41:05;2.30;;;0.22;;
78004;SDS011;67209;51.698;-0.292;2023-07-24T07:43:32;1.48;;;0.20;;
78004;SDS011;67209;51.698;-0.292;2023-07-24T07:45:58;2.80;;;0.38;;
78004;SDS011;67209;51.698;-0.292;2023-07-24T07:48:24;0.47;;;0.20;;
78004;SDS011;67209;51.698;-0.292;2023-07-24T07:50:53;0.93;;;0.30;;
78004;SDS011;67209;51.698;-0.292;2023-07-24T07:53:19;0.40;;;0.20;;
78004;SDS011;67209;51.698;-0.292;2023-07-24T07:55:45;0.60;;;0.15;;
78004;SDS011;67209;51.698;-0.292;2023-07-24T07:58:11;0.30;;;0.20;;
78004;SDS011;67209;51.698;-0.292;2023-07-24T08:00:37;0.50;;;0.10;;
78004;SDS011;67209;51.698;-0.292;2023-07-24T08:03:04;0.28;;;0.20;;
78004;SDS011;67209;51.698;-0.292;2023-07-24T08:05:31;0.50;;;0.20;;
78004;SDS011;67209;51.698;-0.292;2023-07-24T08:07:57;1.17;;;0.30;;
78004;SDS011;67209;51.698;-0.292;2023-07-24T08:10:23;1.45;;;0.20;;
78004;SDS011;67209;51.698;-0.292;2023-07-24T08:12:49;0.45;;;0.20;;
78004;SDS011;67209;51.698;-0.292;2023-07-24T08:15:15;1.85;;;0.43;;
78004;SDS011;67209;51.698;-0.292;2023-07-24T08:17:41;0.93;;;0.30;;
78004;SDS011;67209;51.698;-0.292;2023-07-24T08:20:07;0.20;;;0.15;;
78004;SDS011;67209;51.698;-0.292;2023-07-24T08:22:33;0.98;;;0.10;;
78004;SDS011;67209;51.698;-0.292;2023-07-24T08:24:59;0.63;;;0.10;;
78004;SDS011;67209;51.698;-0.292;2023-07-24T08:27:25;0.45;;;0.30;;
78004;SDS011;67209;51.698;-0.292;2023-07-24T08:29:52;0.93;;;0.20;;
78004;SDS011;67209;51.698;-0.292;2023-07-24T08:32:18;0.45;;;0.20;;
78004;SDS011;67209;51.698;-0.292;2023-07-24T08:34:44;0.60;;;0.20;;
78004;SDS011;67209;51.698;-0.292;2023-07-24T08:37:11;0.68;;;0.40;;
78004;SDS011;67209;51.698;-0.292;2023-07-24T08:39:37;0.90;;;0.20;;
78004;SDS011;67209;51.698;-0.292;2023-07-24T08:42:10;0.45;;;0.30;;
78004;SDS011;67209;51.698;-0.292;2023-07-24T08:44:36;0.45;;;0.30;;
78004;SDS011;67209;51.698;-0.292;2023-07-24T08:47:02;1.10;;;0.30;;
78004;SDS011;67209;51.698;-0.292;2023-07-24T08:49:29;1.00;;;0.20;;
78004;SDS011;67209;51.698;-0.292;2023-07-24T08:51:55;1.20;;;0.57;;
78004;SDS011;67209;51.698;-0.292;2023-07-24T08:54:22;0.50;;;0.40;;
78004;SDS011;67209;51.698;-0.292;2023-07-24T08:56:50;0.77;;;0.20;;
78004;SDS011;67209;51.698;-0.292;2023-07-24T08:59:17;0.55;;;0.30;;
78004;SDS011;67209;51.698;-0.292;2023-07-24T09:01:43;0.38;;;0.30;;
78004;SDS011;67209;51.698;-0.292;2023-07-24T09:04:09;1.55;;;0.45;;
78004;SDS011;67209;51.698;-0.292;2023-07-24T09:06:35;1.55;;;0.45;;
78004;SDS011;67209;51.698;-0.292;2023-07-24T09:09:01;1.13;;;0.28;;
78004;SDS011;67209;51.698;-0.292;2023-07-24T09:11:28;1.08;;;0.30;;
78004;SDS011;67209;51.698;-0.292;2023-07-24T09:13:54;1.27;;;0.40;;
78004;SDS011;67209;51.698;-0.292;2023-07-24T09:16:20;8.43;;;0.70;;
78004;SDS011;67209;51.698;-0.292;2023-07-24T09:18:47;0.70;;;0.30;;
78004;SDS011;67209;51.698;-0.292;2023-07-24T09:21:16;0.60;;;0.20;;
78004;SDS011;67209;51.698;-0.292;2023-07-24T09:23:52;0.93;;;0.30;;
78004;SDS011;67209;51.698;-0.292;2023-07-24T09:26:18;0.95;;;0.20;;
78004;SDS011;67209;51.698;-0.292;2023-07-24T09:28:51;1.30;;;0.32;;
78004;SDS011;67209;51.698;-0.292;2023-07-24T09:31:17;0.40;;;0.22;;
78004;SDS011;67209;51.698;-0.292;2023-07-24T09:33:43;0.82;;;0.20;;
78004;SDS011;67209;51.698;-0.292;2023-07-24T09:36:09;0.52;;;0.30;;
78004;SDS011;67209;51.698;-0.292;2023-07-24T09:38:36;0.40;;;0.28;;
78004;SDS011;67209;51.698;-0.292;2023-07-24T09:41:03;1.38;;;0.38;;
78004;SDS011;67209;51.698;-0.292;2023-07-24T09:43:29;2.53;;;0.40;;
78004;SDS011;67209;51.698;-0.292;2023-07-24T09:45:56;1.73;;;0.40;;
78004;SDS011;67209;51.698;-0.292;2023-07-24T09:48:26;0.70;;;0.45;;
78004;SDS011;67209;51.698;-0.292;2023-07-24T09:50:57;0.70;;;0.30;;
78004;SDS011;67209;51.698;-0.292;2023-07-24T09:53:33;1.40;;;0.50;;
78004;SDS011;67209;51.698;-0.292;2023-07-24T09:56:05;2.22;;;0.70;;
78004;SDS011;67209;51.698;-0.292;2023-07-24T09:58:36;1.95;;;0.63;;
78004;SDS011;67209;51.698;-0.292;2023-07-24T10:01:02;1.20;;;0.60;;
78004;SDS011;67209;51.698;-0.292;2023-07-24T10:03:31;1.75;;;0.50;;
78004;SDS011;67209;51.698;-0.292;2023-07-24T10:05:57;1.10;;;0.60;;
78004;SDS011;67209;51.698;-0.292;2023-07-24T10:08:23;2.25;;;0.80;;
78004;SDS011;67209;51.698;-0.292;2023-07-24T10:10:50;3.30;;;0.90;;
78004;SDS011;67209;51.698;-0.292;2023-07-24T10:13:18;1.05;;;0.50;;
78004;SDS011;67209;51.698;-0.292;2023-07-24T10:15:46;1.35;;;0.40;;
78004;SDS011;67209;51.698;-0.292;2023-07-24T10:18:14;1.35;;;0.60;;
78004;SDS011;67209;51.698;-0.292;2023-07-24T10:20:40;2.33;;;0.60;;
78004;SDS011;67209;51.698;-0.292;2023-07-24T10:23:08;2.90;;;0.68;;
78004;SDS011;67209;51.698;-0.292;2023-07-24T10:25:35;1.35;;;0.60;;
78004;SDS011;67209;51.698;-0.292;2023-07-24T10:28:05;1.00;;;0.90;;
78004;SDS011;67209;51.698;-0.292;2023-07-24T10:30:39;1.20;;;0.68;;
78004;SDS011;67209;51.698;-0.292;2023-07-24T10:33:18;1.30;;;0.90;;
78004;SDS011;67209;51.698;-0.292;2023-07-24T10:35:46;1.15;;;0.73;;
78004;SDS011;67209;51.698;-0.292;2023-07-24T10:38:13;1.55;;;0.75;;
78004;SDS011;67209;51.698;-0.292;2023-07-24T10:40:40;2.05;;;1.42;;
78004;SDS011;67209;51.698;-0.292;2023-07-24T10:43:08;10.75;;;1.52;;
78004;SDS011;67209;51.698;-0.292;2023-07-24T10:45:41;1.83;;;1.10;;
78004;SDS011;67209;51.698;-0.292;2023-07-24T10:48:08;1.60;;;1.13;;
78004;SDS011;67209;51.698;-0.292;2023-07-24T10:50:39;2.30;;;1.45;;
78004;SDS011;67209;51.698;-0.292;2023-07-24T10:53:06;2.10;;;1.50;;
78004;SDS011;67209;51.698;-0.292;2023-07-24T10:55:32;1.73;;;1.30;;
78004;SDS011;67209;51.698;-0.292;2023-07-24T10:57:58;2.63;;;1.60;;
78004;SDS011;67209;51.698;-0.292;2023-07-24T11:00:24;1.85;;;1.60;;
78004;SDS011;67209;51.698;-0.292;2023-07-24T11:02:51;1.77;;;1.08;;
78004;SDS011;67209;51.698;-0.292;2023-07-24T11:05:18;0.75;;;0.75;;
78004;SDS011;67209;51.698;-0.292;2023-07-24T11:07:46;1.60;;;0.80;;
78004;SDS011;67209;51.698;-0.292;2023-07-24T11:10:18;0.80;;;0.60;;
78004;SDS011;67209;51.698;-0.292;2023-07-24T11:12:45;2.65;;;0.60;;
78004;SDS011;67209;51.698;-0.292;2023-07-24T11:15:12;2.15;;;0.80;;
78004;SDS011;67209;51.698;-0.292;2023-07-24T11:17:38;0.90;;;0.70;;
78004;SDS011;67209;51.698;-0.292;2023-07-24T11:20:06;1.42;;;0.60;;
78004;SDS011;67209;51.698;-0.292;2023-07-24T11:22:32;1.88;;;0.73;;
78004;SDS011;67209;51.698;-0.292;2023-07-24T11:24:58;1.17;;;0.70;;
78004;SDS011;67209;51.698;-0.292;2023-07-24T11:27:26;1.23;;;0.77;;
78004;SDS011;67209;51.698;-0.292;2023-07-24T11:29:52;2.15;;;0.73;;
78004;SDS011;67209;51.698;-0.292;2023-07-24T11:32:18;1.92;;;0.85;;
78004;SDS011;67209;51.698;-0.292;2023-07-24T11:34:45;3.05;;;0.80;;
78004;SDS011;67209;51.698;-0.292;2023-07-24T11:37:11;4.60;;;2.35;;
78004;SDS011;67209;51.698;-0.292;2023-07-24T11:39:38;3.03;;;1.13;;
78004;SDS011;67209;51.698;-0.292;2023-07-24T11:42:04;1.55;;;1.00;;
78004;SDS011;67209;51.698;-0.292;2023-07-24T11:44:30;3.20;;;1.13;;
78004;SDS011;67209;51.698;-0.292;2023-07-24T11:47:05;5.45;;;1.35;;
78004;SDS011;67209;51.698;-0.292;2023-07-24T11:49:31;1.27;;;0.80;;
78004;SDS011;67209;51.698;-0.292;2023-07-24T11:52:03;1.70;;;0.90;;
78004;SDS011;67209;51.698;-0.292;2023-07-24T11:54:29;2.25;;;1.08;;
78004;SDS011;67209;51.698;-0.292;2023-07-24T11:56:55;3.08;;;1.13;;
78004;SDS011;67209;51.698;-0.292;2023-07-24T11:59:21;3.70;;;1.20;;
78004;SDS011;67209;51.698;-0.292;2023-07-24T12:01:48;3.88;;;1.15;;
78004;SDS011;67209;51.698;-0.292;2023-07-24T12:04:14;2.38;;;1.27;;
78004;SDS011;67209;51.698;-0.292;2023-07-24T12:06:41;2.78;;;1.25;;
78004;SDS011;67209;51.698;-0.292;2023-07-24T12:09:07;4.30;;;1.30;;
78004;SDS011;67209;51.698;-0.292;2023-07-24T12:11:33;4.40;;;1.15;;
78004;SDS011;67209;51.698;-0.292;2023-07-24T12:14:00;4.10;;;1.17;;
78004;SDS011;67209;51.698;-0.292;2023-07-24T12:16:26;4.10;;;1.10;;
78004;SDS011;67209;51.698;-0.292;2023-07-24T12:18:53;3.33;;;1.40;;
78004;SDS011;67209;51.698;-0.292;2023-07-24T12:21:19;2.60;;;1.05;;
78004;SDS011;67209;51.698;-0.292;2023-07-24T12:23:45;3.38;;;1.75;;
78004;SDS011;67209;51.698;-0.292;2023-07-24T12:26:11;2.70;;;1.40;;
78004;SDS011;67209;51.698;-0.292;2023-07-24T12:28:37;4.60;;;1.10;;
78004;SDS011;67209;51.698;-0.292;2023-07-24T12:31:03;2.72;;;1.33;;
78004;SDS011;67209;51.698;-0.292;2023-07-24T12:33:30;2.70;;;0.98;;
78004;SDS011;67209;51.698;-0.292;2023-07-24T12:35:56;2.55;;;1.15;;
78004;SDS011;67209;51.698;-0.292;2023-07-24T12:38:22;3.90;;;1.35;;
78004;SDS011;67209;51.698;-0.292;2023-07-24T12:40:48;1.90;;;1.05;;
78004;SDS011;67209;51.698;-0.292;2023-07-24T12:43:15;4.13;;;1.10;;
78004;SDS011;67209;51.698;-0.292;2023-07-24T12:45:41;2.63;;;1.30;;
78004;SDS011;67209;51.698;-0.292;2023-07-24T12:48:07;3.45;;;1.40;;
78004;SDS011;67209;51.698;-0.292;2023-07-24T12:50:33;2.20;;;1.30;;
78004;SDS011;67209;51.698;-0.292;2023-07-24T12:52:59;2.83;;;1.10;;
78004;SDS011;67209;51.698;-0.292;2023-07-24T12:55:25;3.10;;;1.27;;
78004;SDS011;67209;51.698;-0.292;2023-07-24T12:57:52;1.67;;;1.00;;
78004;SDS011;67209;51.698;-0.292;2023-07-24T13:00:18;2.20;;;1.50;;
78004;SDS011;67209;51.698;-0.292;2023-07-24T13:02:44;4.55;;;1.10;;
78004;SDS011;67209;51.698;-0.292;2023-07-24T13:05:10;5.20;;;1.15;;
78004;SDS011;67209;51.698;-0.292;2023-07-24T13:07:36;3.67;;;1.10;;
78004;SDS011;67209;51.698;-0.292;2023-07-24T13:10:02;3.47;;;1.20;;
78004;SDS011;67209;51.698;-0.292;2023-07-24T13:12:28;3.30;;;1.60;;
78004;SDS011;67209;51.698;-0.292;2023-07-24T13:14:54;2.65;;;1.15;;
78004;SDS011;67209;51.698;-0.292;2023-07-24T13:17:21;3.65;;;1.20;;
78004;SDS011;67209;51.698;-0.292;2023-07-24T13:19:47;1.75;;;1.02;;
78004;SDS011;67209;51.698;-0.292;2023-07-24T13:22:13;3.80;;;1.30;;
78004;SDS011;67209;51.698;-0.292;2023-07-24T13:24:39;3.33;;;1.30;;
78004;SDS011;67209;51.698;-0.292;2023-07-24T13:27:05;2.50;;;1.05;;
78004;SDS011;67209;51.698;-0.292;2023-07-24T13:29:31;3.67;;;1.23;;
78004;SDS011;67209;51.698;-0.292;2023-07-24T13:31:57;3.47;;;1.90;;
78004;SDS011;67209;51.698;-0.292;2023-07-24T13:34:23;2.95;;;1.10;;
78004;SDS011;67209;51.698;-0.292;2023-07-24T13:36:49;3.83;;;1.10;;
78004;SDS011;67209;51.698;-0.292;2023-07-24T13:39:15;3.67;;;1.42;;
78004;SDS011;67209;51.698;-0.292;2023-07-24T13:41:42;3.33;;;1.20;;
78004;SDS011;67209;51.698;-0.292;2023-07-24T13:44:09;4.63;;;1.10;;
78004;SDS011;67209;51.698;-0.292;2023-07-24T13:46:35;2.45;;;1.00;;
78004;SDS011;67209;51.698;-0.292;2023-07-24T13:49:01;2.05;;;1.00;;
78004;SDS011;67209;51.698;-0.292;2023-07-24T13:51:28;2.15;;;1.20;;
78004;SDS011;67209;51.698;-0.292;2023-07-24T13:53:54;3.25;;;1.25;;
78004;SDS011;67209;51.698;-0.292;2023-07-24T13:56:20;1.73;;;1.23;;
78004;SDS011;67209;51.698;-0.292;2023-07-24T13:58:48;5.05;;;1.25;;
78004;SDS011;67209;51.698;-0.292;2023-07-24T14:01:14;3.28;;;1.15;;
78004;SDS011;67209;51.698;-0.292;2023-07-24T14:03:40;1.65;;;1.25;;
78004;SDS011;67209;51.698;-0.292;2023-07-24T14:06:06;2.15;;;1.50;;
78004;SDS011;67209;51.698;-0.292;2023-07-24T14:08:32;3.35;;;1.30;;
78004;SDS011;67209;51.698;-0.292;2023-07-24T14:10:58;3.85;;;1.55;;
78004;SDS011;67209;51.698;-0.292;2023-07-24T14:13:24;3.97;;;1.17;;
78004;SDS011;67209;51.698;-0.292;2023-07-24T14:15:50;2.47;;;1.27;;
78004;SDS011;67209;51.698;-0.292;2023-07-24T14:18:16;4.15;;;1.13;;
78004;SDS011;67209;51.698;-0.292;2023-07-24T14:20:42;3.17;;;1.50;;
78004;SDS011;67209;51.698;-0.292;2023-07-24T14:23:08;3.47;;;1.45;;
78004;SDS011;67209;51.698;-0.292;2023-07-24T14:25:35;3.67;;;1.30;;
78004;SDS011;67209;51.698;-0.292;2023-07-24T14:28:01;3.95;;;1.10;;
78004;SDS011;67209;51.698;-0.292;2023-07-24T14:30:27;4.90;;;1.58;;
78004;SDS011;67209;51.698;-0.292;2023-07-24T14:32:53;3.75;;;1.40;;
78004;SDS011;67209;51.698;-0.292;2023-07-24T14:35:19;3.90;;;1.08;;